AFL259 LTFM-URMM
Flight info
| Callsign | AFL259 |
|---|---|
| Flight time | 1h 34m |
| Altitude | 41000 |
| Route | IST UM603 BKZ UW702 GUMRU UT310 INB UW90 SIN UW96 ODIRA/K0846F410 G487 ERSAR B967 ABELA ABELA5B |
| Aircraft | A333/H-SDE3GHIJ2J3J5M1RVWXY/LB2D1 |
Departure
| Time | 2026-04-24 22:51 |
|---|---|
| Airport | İstanbul Airport (LTFM) |
Arrival
| Time | 2026-04-25 00:26 |
|---|---|
| Airport | Mineralnye Vody Airport (URMM) |
| Time | Latitude | Longitude | Altitude | Speed | Heading |
|---|---|---|---|---|---|
| 2026-04-24 22:34 | 41.26801 | 28.74126 | 333 ft | 0 kts | 91° |
| 2026-04-24 22:38 | 41.26801 | 28.74123 | 333 ft | 3 kts | 91° |
| 2026-04-24 22:39 | 41.26802 | 28.74088 | 334 ft | 4 kts | 91° |
| 2026-04-24 22:39 | 41.26802 | 28.74053 | 332 ft | 4 kts | 76° |
| 2026-04-24 22:39 | 41.26792 | 28.74026 | 332 ft | 4 kts | 32° |
| 2026-04-24 22:39 | 41.26774 | 28.74019 | 334 ft | 3 kts | 359° |
| 2026-04-24 22:40 | 41.26748 | 28.74020 | 334 ft | 2 kts | 359° |
| 2026-04-24 22:40 | 41.26746 | 28.74020 | 334 ft | 0 kts | 359° |
| 2026-04-24 22:42 | 41.26748 | 28.74020 | 334 ft | 2 kts | 359° |
| 2026-04-24 22:42 | 41.26800 | 28.74019 | 332 ft | 11 kts | 359° |
| 2026-04-24 22:42 | 41.26893 | 28.74017 | 333 ft | 16 kts | 359° |
| 2026-04-24 22:42 | 41.27019 | 28.74014 | 333 ft | 20 kts | 359° |
| 2026-04-24 22:43 | 41.27117 | 28.74005 | 336 ft | 10 kts | 339° |
| 2026-04-24 22:43 | 41.27139 | 28.73918 | 335 ft | 11 kts | 272° |
| 2026-04-24 22:43 | 41.27137 | 28.73800 | 335 ft | 17 kts | 268° |
| 2026-04-24 22:43 | 41.27135 | 28.73621 | 334 ft | 21 kts | 270° |
| 2026-04-24 22:44 | 41.27133 | 28.73420 | 334 ft | 23 kts | 268° |
| 2026-04-24 22:44 | 41.27130 | 28.73207 | 334 ft | 22 kts | 270° |
| 2026-04-24 22:44 | 41.27162 | 28.73104 | 332 ft | 13 kts | 334° |
| 2026-04-24 22:44 | 41.27260 | 28.73096 | 332 ft | 17 kts | 360° |
| 2026-04-24 22:45 | 41.27406 | 28.73093 | 333 ft | 23 kts | 359° |
| 2026-04-24 22:45 | 41.27551 | 28.73087 | 337 ft | 19 kts | 348° |
| 2026-04-24 22:45 | 41.27605 | 28.72985 | 334 ft | 9 kts | 304° |
| 2026-04-24 22:45 | 41.27663 | 28.72970 | 332 ft | 11 kts | 360° |
| 2026-04-24 22:46 | 41.27766 | 28.72969 | 333 ft | 20 kts | 359° |
| 2026-04-24 22:46 | 41.27932 | 28.72963 | 333 ft | 28 kts | 360° |
| 2026-04-24 22:46 | 41.28146 | 28.72960 | 333 ft | 34 kts | 359° |
| 2026-04-24 22:46 | 41.28398 | 28.72953 | 334 ft | 38 kts | 359° |
| 2026-04-24 22:47 | 41.28681 | 28.72946 | 334 ft | 42 kts | 359° |
| 2026-04-24 22:47 | 41.28971 | 28.72942 | 334 ft | 42 kts | 359° |
| 2026-04-24 22:47 | 41.29257 | 28.72935 | 333 ft | 42 kts | 359° |
| 2026-04-24 22:47 | 41.29523 | 28.72927 | 336 ft | 24 kts | 359° |
| 2026-04-24 22:48 | 41.29692 | 28.72924 | 333 ft | 22 kts | 358° |
| 2026-04-24 22:48 | 41.29831 | 28.72921 | 333 ft | 14 kts | 0° |
| 2026-04-24 22:48 | 41.29876 | 28.72893 | 334 ft | 8 kts | 302° |
| 2026-04-24 22:48 | 41.29878 | 28.72871 | 334 ft | 0 kts | 271° |
| 2026-04-24 22:49 | 41.29878 | 28.72862 | 333 ft | 2 kts | 271° |
| 2026-04-24 22:49 | 41.29879 | 28.72785 | 334 ft | 14 kts | 269° |
| 2026-04-24 22:49 | 41.29877 | 28.72608 | 335 ft | 22 kts | 269° |
| 2026-04-24 22:49 | 41.29859 | 28.72465 | 334 ft | 9 kts | 226° |
| 2026-04-24 22:50 | 41.29812 | 28.72444 | 335 ft | 0 kts | 180° |
| 2026-04-24 22:50 | 41.29773 | 28.72444 | 335 ft | 25 kts | 180° |
| 2026-04-24 22:50 | 41.29348 | 28.72455 | 336 ft | 95 kts | 178° |
| 2026-04-24 22:50 | 41.28470 | 28.72478 | 334 ft | 155 kts | 178° |
| 2026-04-24 22:51 | 41.27329 | 28.72503 | 733 ft | 180 kts | 178° |
| 2026-04-24 22:51 | 41.26072 | 28.72543 | 1617 ft | 185 kts | 172° |
| 2026-04-24 22:51 | 41.24744 | 28.72656 | 2187 ft | 204 kts | 177° |
| 2026-04-24 22:51 | 41.23227 | 28.72713 | 2535 ft | 234 kts | 179° |
| 2026-04-24 22:52 | 41.21502 | 28.72740 | 3049 ft | 253 kts | 179° |
| 2026-04-24 22:52 | 41.19733 | 28.72770 | 3851 ft | 261 kts | 178° |
| 2026-04-24 22:52 | 41.17894 | 28.72814 | 4726 ft | 267 kts | 179° |
| 2026-04-24 22:52 | 41.15990 | 28.72869 | 5619 ft | 273 kts | 178° |
| 2026-04-24 22:53 | 41.14070 | 28.72925 | 6531 ft | 279 kts | 178° |
| 2026-04-24 22:53 | 41.12142 | 28.72979 | 7432 ft | 283 kts | 178° |
| 2026-04-24 22:53 | 41.10127 | 28.73042 | 8398 ft | 288 kts | 178° |
| 2026-04-24 22:53 | 41.08121 | 28.73094 | 9340 ft | 292 kts | 178° |
| 2026-04-24 22:54 | 41.06068 | 28.73148 | 10242 ft | 299 kts | 179° |
| 2026-04-24 22:54 | 41.03929 | 28.73375 | 10664 ft | 320 kts | 168° |
| 2026-04-24 22:54 | 41.01831 | 28.74520 | 11091 ft | 336 kts | 145° |
| 2026-04-24 22:54 | 41.00065 | 28.76526 | 11783 ft | 342 kts | 129° |
| 2026-04-24 22:55 | 40.98814 | 28.79129 | 12538 ft | 345 kts | 110° |
| 2026-04-24 22:55 | 40.98280 | 28.82270 | 13381 ft | 345 kts | 90° |
| 2026-04-24 22:55 | 40.98598 | 28.85405 | 14161 ft | 345 kts | 70° |
| 2026-04-24 22:55 | 40.99592 | 28.88301 | 14899 ft | 347 kts | 59° |
| 2026-04-24 22:56 | 41.00836 | 28.91052 | 15648 ft | 350 kts | 55° |
| 2026-04-24 22:56 | 41.02205 | 28.93736 | 16389 ft | 354 kts | 53° |
| 2026-04-24 22:56 | 41.03621 | 28.96404 | 17116 ft | 358 kts | 53° |
| 2026-04-24 22:56 | 41.04996 | 28.98994 | 17788 ft | 363 kts | 53° |
| 2026-04-24 22:57 | 41.06440 | 29.01762 | 18493 ft | 367 kts | 54° |
| 2026-04-24 22:57 | 41.07796 | 29.04411 | 19096 ft | 370 kts | 54° |
| 2026-04-24 22:57 | 41.09232 | 29.07261 | 19737 ft | 374 kts | 55° |
| 2026-04-24 22:57 | 41.10670 | 29.10148 | 20380 ft | 377 kts | 55° |
| 2026-04-24 22:58 | 41.12013 | 29.13150 | 21005 ft | 381 kts | 62° |
| 2026-04-24 22:58 | 41.13015 | 29.16430 | 21626 ft | 386 kts | 69° |
| 2026-04-24 22:58 | 41.13828 | 29.19832 | 22276 ft | 388 kts | 72° |
| 2026-04-24 22:58 | 41.14550 | 29.23302 | 22882 ft | 392 kts | 73° |
| 2026-04-24 22:59 | 41.15228 | 29.26826 | 23475 ft | 396 kts | 74° |
| 2026-04-24 22:59 | 41.15889 | 29.30381 | 23995 ft | 399 kts | 74° |
| 2026-04-24 22:59 | 41.17223 | 29.37563 | 25017 ft | 402 kts | 73° |
| 2026-04-24 23:00 | 41.17903 | 29.41172 | 25525 ft | 404 kts | 73° |
| 2026-04-24 23:00 | 41.18591 | 29.44785 | 26052 ft | 405 kts | 73° |
| 2026-04-24 23:00 | 41.19285 | 29.48417 | 26550 ft | 406 kts | 73° |
| 2026-04-24 23:00 | 41.19988 | 29.52058 | 27041 ft | 408 kts | 73° |
| 2026-04-24 23:01 | 41.20724 | 29.55699 | 27519 ft | 409 kts | 72° |
| 2026-04-24 23:01 | 41.21484 | 29.59355 | 27959 ft | 412 kts | 71° |
| 2026-04-24 23:01 | 41.22258 | 29.63034 | 28412 ft | 414 kts | 71° |
| 2026-04-24 23:01 | 41.23035 | 29.66727 | 28879 ft | 416 kts | 71° |
| 2026-04-24 23:02 | 41.23814 | 29.70440 | 29351 ft | 418 kts | 71° |
| 2026-04-24 23:02 | 41.24593 | 29.74171 | 29789 ft | 420 kts | 71° |
| 2026-04-24 23:02 | 41.25372 | 29.77925 | 30217 ft | 422 kts | 71° |
| 2026-04-24 23:02 | 41.26153 | 29.81702 | 30582 ft | 425 kts | 72° |
| 2026-04-24 23:03 | 41.26936 | 29.85498 | 30925 ft | 427 kts | 72° |
| 2026-04-24 23:03 | 41.27722 | 29.89320 | 31273 ft | 430 kts | 72° |
| 2026-04-24 23:03 | 41.28510 | 29.93161 | 31621 ft | 432 kts | 72° |
| 2026-04-24 23:03 | 41.29302 | 29.97028 | 31964 ft | 435 kts | 71° |
| 2026-04-24 23:04 | 41.30092 | 30.00925 | 32283 ft | 438 kts | 72° |
| 2026-04-24 23:04 | 41.30858 | 30.04845 | 32716 ft | 438 kts | 72° |
| 2026-04-24 23:04 | 41.31605 | 30.08754 | 33222 ft | 436 kts | 73° |
| 2026-04-24 23:04 | 41.32330 | 30.12591 | 33737 ft | 434 kts | 73° |
| 2026-04-24 23:05 | 41.33072 | 30.16529 | 34176 ft | 433 kts | 73° |
| 2026-04-24 23:05 | 41.33795 | 30.20362 | 34474 ft | 434 kts | 73° |
| 2026-04-24 23:05 | 41.34533 | 30.24270 | 34717 ft | 437 kts | 73° |
| 2026-04-24 23:05 | 41.35276 | 30.28198 | 34983 ft | 439 kts | 73° |
| 2026-04-24 23:06 | 41.36020 | 30.32143 | 35252 ft | 440 kts | 73° |
| 2026-04-24 23:06 | 41.36769 | 30.36114 | 35415 ft | 445 kts | 73° |
| 2026-04-24 23:06 | 41.37525 | 30.40126 | 35633 ft | 448 kts | 73° |
| 2026-04-24 23:06 | 41.38280 | 30.44150 | 35932 ft | 449 kts | 73° |
| 2026-04-24 23:07 | 41.39036 | 30.48191 | 36213 ft | 450 kts | 73° |
| 2026-04-24 23:07 | 41.39793 | 30.52241 | 36461 ft | 451 kts | 73° |
| 2026-04-24 23:07 | 41.40548 | 30.56293 | 36709 ft | 453 kts | 73° |
| 2026-04-24 23:07 | 41.41309 | 30.60381 | 36974 ft | 454 kts | 73° |
| 2026-04-24 23:08 | 41.42069 | 30.64474 | 37219 ft | 456 kts | 73° |
| 2026-04-24 23:08 | 41.42829 | 30.68579 | 37457 ft | 457 kts | 74° |
| 2026-04-24 23:08 | 41.43591 | 30.72701 | 37717 ft | 459 kts | 74° |
| 2026-04-24 23:08 | 41.44353 | 30.76830 | 37968 ft | 460 kts | 74° |
| 2026-04-24 23:09 | 41.45117 | 30.80979 | 38192 ft | 462 kts | 74° |
| 2026-04-24 23:09 | 41.45883 | 30.85147 | 38342 ft | 464 kts | 74° |
| 2026-04-24 23:09 | 41.46651 | 30.89338 | 38549 ft | 466 kts | 74° |
| 2026-04-24 23:09 | 41.47420 | 30.93543 | 38776 ft | 467 kts | 74° |
| 2026-04-24 23:10 | 41.48186 | 30.97749 | 38992 ft | 467 kts | 74° |
| 2026-04-24 23:10 | 41.48953 | 31.01961 | 39233 ft | 466 kts | 74° |
| 2026-04-24 23:10 | 41.49715 | 31.06162 | 39461 ft | 466 kts | 75° |
| 2026-04-24 23:10 | 41.50475 | 31.10357 | 39671 ft | 466 kts | 75° |
| 2026-04-24 23:11 | 41.51236 | 31.14566 | 39890 ft | 466 kts | 75° |
| 2026-04-24 23:11 | 41.51995 | 31.18773 | 40078 ft | 467 kts | 75° |
| 2026-04-24 23:11 | 41.52754 | 31.22987 | 40261 ft | 467 kts | 75° |
| 2026-04-24 23:11 | 41.53511 | 31.27203 | 40447 ft | 467 kts | 75° |
| 2026-04-24 23:12 | 41.54257 | 31.31365 | 40637 ft | 467 kts | 75° |
| 2026-04-24 23:12 | 41.55027 | 31.35647 | 40796 ft | 469 kts | 75° |
| 2026-04-24 23:12 | 41.55806 | 31.39873 | 40943 ft | 470 kts | 74° |
| 2026-04-24 23:13 | 41.57406 | 31.48383 | 41041 ft | 477 kts | 74° |
| 2026-04-24 23:13 | 41.59037 | 31.57052 | 41059 ft | 486 kts | 74° |
| 2026-04-24 23:14 | 41.60687 | 31.65898 | 41044 ft | 495 kts | 74° |
| 2026-04-24 23:14 | 41.62354 | 31.74904 | 41045 ft | 503 kts | 74° |
| 2026-04-24 23:15 | 41.64026 | 31.83994 | 41045 ft | 503 kts | 75° |
| 2026-04-24 23:15 | 41.65678 | 31.93018 | 41042 ft | 503 kts | 75° |
| 2026-04-24 23:16 | 41.67334 | 32.02103 | 41049 ft | 503 kts | 75° |
| 2026-04-24 23:16 | 41.68985 | 32.11201 | 41043 ft | 503 kts | 75° |
| 2026-04-24 23:17 | 41.70629 | 32.20303 | 41045 ft | 503 kts | 75° |
| 2026-04-24 23:17 | 41.72266 | 32.29418 | 41047 ft | 504 kts | 75° |
| 2026-04-24 23:18 | 41.73834 | 32.38554 | 41057 ft | 504 kts | 75° |
| 2026-04-24 23:18 | 41.75361 | 32.47739 | 41050 ft | 506 kts | 76° |
| 2026-04-24 23:19 | 41.76885 | 32.56950 | 41056 ft | 507 kts | 76° |
| 2026-04-24 23:19 | 41.78409 | 32.66166 | 41063 ft | 506 kts | 76° |
| 2026-04-24 23:20 | 41.79928 | 32.75381 | 41054 ft | 506 kts | 76° |
| 2026-04-24 23:20 | 41.81439 | 32.84599 | 41065 ft | 506 kts | 76° |
| 2026-04-24 23:21 | 41.82945 | 32.93827 | 41061 ft | 508 kts | 76° |
| 2026-04-24 23:21 | 41.84447 | 33.03080 | 41078 ft | 508 kts | 76° |
| 2026-04-24 23:22 | 41.85942 | 33.12348 | 41078 ft | 509 kts | 76° |
| 2026-04-24 23:22 | 41.87428 | 33.21624 | 41082 ft | 509 kts | 76° |
| 2026-04-24 23:23 | 41.88908 | 33.30905 | 41080 ft | 509 kts | 76° |
| 2026-04-24 23:23 | 41.90371 | 33.40128 | 41075 ft | 509 kts | 76° |
| 2026-04-24 23:24 | 41.91839 | 33.49435 | 41084 ft | 510 kts | 76° |
| 2026-04-24 23:24 | 41.93301 | 33.58758 | 41080 ft | 510 kts | 76° |
| 2026-04-24 23:25 | 41.94750 | 33.68091 | 41080 ft | 511 kts | 78° |
| 2026-04-24 23:25 | 41.95555 | 33.77588 | 41070 ft | 512 kts | 83° |
| 2026-04-24 23:26 | 41.96124 | 33.87143 | 41072 ft | 513 kts | 84° |
| 2026-04-24 23:26 | 41.96638 | 33.96704 | 41068 ft | 514 kts | 84° |
| 2026-04-24 23:27 | 41.97150 | 34.06290 | 41073 ft | 514 kts | 84° |
| 2026-04-24 23:27 | 41.97665 | 34.15874 | 41078 ft | 514 kts | 84° |
| 2026-04-24 23:28 | 41.98176 | 34.25473 | 41070 ft | 516 kts | 84° |
| 2026-04-24 23:28 | 41.98681 | 34.35093 | 41070 ft | 516 kts | 85° |
| 2026-04-24 23:29 | 41.99178 | 34.44730 | 41066 ft | 517 kts | 85° |
| 2026-04-24 23:29 | 41.99667 | 34.54374 | 41067 ft | 518 kts | 85° |
| 2026-04-24 23:30 | 42.00148 | 34.64034 | 41063 ft | 518 kts | 85° |
| 2026-04-24 23:30 | 42.00621 | 34.73688 | 41068 ft | 518 kts | 85° |
| 2026-04-24 23:31 | 42.01088 | 34.83365 | 41063 ft | 519 kts | 85° |
| 2026-04-24 23:31 | 42.01567 | 34.93061 | 41066 ft | 520 kts | 85° |
| 2026-04-24 23:32 | 42.02115 | 35.02760 | 41058 ft | 520 kts | 81° |
| 2026-04-24 23:32 | 42.04105 | 35.12014 | 41061 ft | 514 kts | 64° |
| 2026-04-24 23:33 | 42.07198 | 35.20675 | 41059 ft | 514 kts | 60° |
| 2026-04-24 23:33 | 42.10468 | 35.29156 | 41050 ft | 514 kts | 59° |
| 2026-04-24 23:34 | 42.13763 | 35.37691 | 41050 ft | 514 kts | 60° |
| 2026-04-24 23:34 | 42.17038 | 35.46264 | 41061 ft | 516 kts | 60° |
| 2026-04-24 23:35 | 42.20315 | 35.54884 | 41049 ft | 517 kts | 60° |
| 2026-04-24 23:35 | 42.23588 | 35.63527 | 41046 ft | 517 kts | 60° |
| 2026-04-24 23:36 | 42.26324 | 35.70771 | 41045 ft | 517 kts | 60° |
| 2026-04-24 23:36 | 42.29563 | 35.79370 | 41042 ft | 518 kts | 60° |
| 2026-04-24 23:37 | 42.32821 | 35.88046 | 41043 ft | 518 kts | 60° |
| 2026-04-24 23:37 | 42.37697 | 36.01081 | 41065 ft | 518 kts | 60° |
| 2026-04-24 23:38 | 42.40941 | 36.09786 | 41048 ft | 519 kts | 60° |
| 2026-04-24 23:38 | 42.44183 | 36.18511 | 41051 ft | 519 kts | 60° |
| 2026-04-24 23:39 | 42.47418 | 36.27247 | 41053 ft | 519 kts | 60° |
| 2026-04-24 23:39 | 42.50648 | 36.35994 | 41053 ft | 520 kts | 60° |
| 2026-04-24 23:40 | 42.53880 | 36.44772 | 41049 ft | 521 kts | 60° |
| 2026-04-24 23:40 | 42.57110 | 36.53573 | 41051 ft | 521 kts | 60° |
| 2026-04-24 23:41 | 42.60330 | 36.62378 | 41053 ft | 521 kts | 60° |
| 2026-04-24 23:41 | 42.63548 | 36.71202 | 41053 ft | 521 kts | 60° |
| 2026-04-24 23:42 | 42.66735 | 36.79970 | 41053 ft | 521 kts | 61° |
| 2026-04-24 23:42 | 42.69937 | 36.88805 | 41067 ft | 521 kts | 61° |
| 2026-04-24 23:43 | 42.72960 | 36.97776 | 41050 ft | 523 kts | 64° |
| 2026-04-24 23:43 | 42.75735 | 37.06923 | 41053 ft | 523 kts | 65° |
| 2026-04-24 23:44 | 42.78485 | 37.16099 | 41058 ft | 523 kts | 65° |
| 2026-04-24 23:44 | 42.81255 | 37.25258 | 41048 ft | 523 kts | 65° |
| 2026-04-24 23:45 | 42.84041 | 37.34432 | 41065 ft | 525 kts | 65° |
| 2026-04-24 23:45 | 42.86832 | 37.43634 | 41058 ft | 525 kts | 65° |
| 2026-04-24 23:46 | 42.89612 | 37.52842 | 41056 ft | 525 kts | 65° |
| 2026-04-24 23:46 | 42.92384 | 37.62056 | 41061 ft | 525 kts | 65° |
| 2026-04-24 23:47 | 42.95150 | 37.71283 | 41059 ft | 525 kts | 65° |
| 2026-04-24 23:47 | 42.97909 | 37.80524 | 41058 ft | 525 kts | 65° |
| 2026-04-24 23:48 | 43.00651 | 37.89775 | 41066 ft | 525 kts | 65° |
| 2026-04-24 23:48 | 43.03378 | 37.99036 | 41064 ft | 525 kts | 65° |
| 2026-04-24 23:49 | 43.06081 | 38.08309 | 41064 ft | 525 kts | 66° |
| 2026-04-24 23:49 | 43.08771 | 38.17595 | 41064 ft | 525 kts | 66° |
| 2026-04-24 23:50 | 43.11464 | 38.26816 | 41065 ft | 525 kts | 66° |
| 2026-04-24 23:50 | 43.14182 | 38.36094 | 41065 ft | 525 kts | 66° |
| 2026-04-24 23:51 | 43.16891 | 38.45378 | 41068 ft | 525 kts | 66° |
| 2026-04-24 23:51 | 43.19592 | 38.54679 | 41079 ft | 525 kts | 66° |
| 2026-04-24 23:52 | 43.22285 | 38.63991 | 41069 ft | 526 kts | 66° |
| 2026-04-24 23:52 | 43.24971 | 38.73314 | 41067 ft | 526 kts | 66° |
| 2026-04-24 23:53 | 43.27640 | 38.82650 | 41067 ft | 526 kts | 66° |
| 2026-04-24 23:53 | 43.30273 | 38.92007 | 41062 ft | 526 kts | 67° |
| 2026-04-24 23:54 | 43.32902 | 39.01397 | 41073 ft | 528 kts | 67° |
| 2026-04-24 23:54 | 43.35577 | 39.10791 | 41072 ft | 528 kts | 65° |
| 2026-04-24 23:55 | 43.38605 | 39.19965 | 41085 ft | 527 kts | 63° |
| 2026-04-24 23:55 | 43.41750 | 39.29069 | 41072 ft | 526 kts | 62° |
| 2026-04-24 23:56 | 43.44861 | 39.38182 | 41078 ft | 526 kts | 63° |
| 2026-04-24 23:56 | 43.47936 | 39.47327 | 41077 ft | 526 kts | 63° |
| 2026-04-24 23:57 | 43.50993 | 39.56491 | 41071 ft | 526 kts | 63° |
| 2026-04-24 23:57 | 43.54035 | 39.65647 | 41063 ft | 525 kts | 63° |
| 2026-04-24 23:58 | 43.57045 | 39.74745 | 41062 ft | 525 kts | 63° |
| 2026-04-24 23:58 | 43.60058 | 39.83922 | 41087 ft | 525 kts | 64° |
| 2026-04-24 23:59 | 43.63059 | 39.93104 | 41085 ft | 525 kts | 64° |
| 2026-04-24 23:59 | 43.66060 | 40.02310 | 41086 ft | 526 kts | 64° |
| 2026-04-25 00:00 | 43.69053 | 40.11521 | 41088 ft | 526 kts | 64° |
| 2026-04-25 00:00 | 43.72038 | 40.20732 | 41082 ft | 525 kts | 64° |
| 2026-04-25 00:01 | 43.75005 | 40.29920 | 40853 ft | 521 kts | 64° |
| 2026-04-25 00:01 | 43.76472 | 40.34479 | 40420 ft | 517 kts | 64° |
| 2026-04-25 00:01 | 43.77935 | 40.39029 | 39784 ft | 519 kts | 64° |
| 2026-04-25 00:02 | 43.79406 | 40.43611 | 39141 ft | 521 kts | 64° |
| 2026-04-25 00:02 | 43.80878 | 40.48198 | 38468 ft | 523 kts | 64° |
| 2026-04-25 00:02 | 43.82362 | 40.52832 | 37473 ft | 530 kts | 64° |
| 2026-04-25 00:02 | 43.83866 | 40.57538 | 36455 ft | 537 kts | 64° |
| 2026-04-25 00:03 | 43.85376 | 40.62278 | 35598 ft | 539 kts | 64° |
| 2026-04-25 00:03 | 43.86893 | 40.67046 | 34583 ft | 543 kts | 63° |
| 2026-04-25 00:03 | 43.88416 | 40.71850 | 33289 ft | 548 kts | 63° |
| 2026-04-25 00:03 | 43.89948 | 40.76728 | 31716 ft | 555 kts | 64° |
| 2026-04-25 00:04 | 43.91494 | 40.81684 | 29841 ft | 564 kts | 65° |
| 2026-04-25 00:04 | 43.93044 | 40.86680 | 29137 ft | 553 kts | 65° |
| 2026-04-25 00:04 | 43.94522 | 40.91464 | 29441 ft | 527 kts | 65° |
| 2026-04-25 00:04 | 43.95933 | 40.96047 | 29484 ft | 508 kts | 65° |
| 2026-04-25 00:05 | 43.97305 | 41.00508 | 29237 ft | 496 kts | 65° |
| 2026-04-25 00:05 | 43.98651 | 41.04877 | 28779 ft | 491 kts | 65° |
| 2026-04-25 00:05 | 43.99996 | 41.09245 | 28011 ft | 493 kts | 65° |
| 2026-04-25 00:05 | 44.01342 | 41.13620 | 27422 ft | 492 kts | 65° |
| 2026-04-25 00:06 | 44.02685 | 41.17989 | 26824 ft | 490 kts | 65° |
| 2026-04-25 00:06 | 44.04015 | 41.22322 | 26330 ft | 486 kts | 65° |
| 2026-04-25 00:06 | 44.05327 | 41.26607 | 25692 ft | 477 kts | 66° |
| 2026-04-25 00:06 | 44.06611 | 41.30817 | 24758 ft | 470 kts | 66° |
| 2026-04-25 00:07 | 44.07875 | 41.34969 | 23793 ft | 463 kts | 66° |
| 2026-04-25 00:07 | 44.09122 | 41.39064 | 22771 ft | 456 kts | 65° |
| 2026-04-25 00:07 | 44.10328 | 41.43031 | 21789 ft | 447 kts | 65° |
| 2026-04-25 00:07 | 44.11406 | 41.47051 | 20798 ft | 440 kts | 76° |
| 2026-04-25 00:08 | 44.11981 | 41.51196 | 19872 ft | 433 kts | 81° |
| 2026-04-25 00:08 | 44.12406 | 41.55304 | 18948 ft | 425 kts | 84° |
| 2026-04-25 00:08 | 44.12720 | 41.59369 | 18421 ft | 418 kts | 85° |
| 2026-04-25 00:08 | 44.12981 | 41.63383 | 17919 ft | 415 kts | 86° |
| 2026-04-25 00:09 | 44.13224 | 41.67373 | 17385 ft | 413 kts | 86° |
| 2026-04-25 00:09 | 44.13468 | 41.71339 | 16859 ft | 410 kts | 85° |
| 2026-04-25 00:09 | 44.13716 | 41.75276 | 16331 ft | 406 kts | 85° |
| 2026-04-25 00:09 | 44.13969 | 41.79177 | 15791 ft | 403 kts | 85° |
| 2026-04-25 00:10 | 44.14224 | 41.83043 | 15287 ft | 399 kts | 85° |
| 2026-04-25 00:10 | 44.14481 | 41.86878 | 14764 ft | 396 kts | 85° |
| 2026-04-25 00:10 | 44.14735 | 41.90684 | 14242 ft | 394 kts | 85° |
| 2026-04-25 00:10 | 44.14990 | 41.94476 | 13725 ft | 392 kts | 85° |
| 2026-04-25 00:11 | 44.15242 | 41.98241 | 13170 ft | 388 kts | 85° |
| 2026-04-25 00:11 | 44.15405 | 42.00706 | 12824 ft | 385 kts | 86° |
| 2026-04-25 00:11 | 44.15728 | 42.05623 | 12165 ft | 378 kts | 86° |
| 2026-04-25 00:11 | 44.15964 | 42.09246 | 11682 ft | 373 kts | 86° |
| 2026-04-25 00:12 | 44.16195 | 42.12818 | 11207 ft | 368 kts | 86° |
| 2026-04-25 00:12 | 44.16423 | 42.16348 | 10710 ft | 364 kts | 87° |
| 2026-04-25 00:12 | 44.16646 | 42.19825 | 10311 ft | 356 kts | 87° |
| 2026-04-25 00:12 | 44.16862 | 42.23186 | 10210 ft | 341 kts | 87° |
| 2026-04-25 00:13 | 44.17070 | 42.26401 | 10104 ft | 326 kts | 88° |
| 2026-04-25 00:13 | 44.17268 | 42.29492 | 9921 ft | 316 kts | 88° |
| 2026-04-25 00:13 | 44.17459 | 42.32532 | 9480 ft | 314 kts | 88° |
| 2026-04-25 00:13 | 44.17643 | 42.35550 | 9083 ft | 312 kts | 87° |
| 2026-04-25 00:14 | 44.17826 | 42.38539 | 8722 ft | 307 kts | 87° |
| 2026-04-25 00:14 | 44.18007 | 42.41486 | 8381 ft | 304 kts | 86° |
| 2026-04-25 00:14 | 44.18187 | 42.44407 | 8012 ft | 301 kts | 86° |
| 2026-04-25 00:14 | 44.18362 | 42.47268 | 7669 ft | 299 kts | 86° |
| 2026-04-25 00:15 | 44.18538 | 42.50146 | 7311 ft | 297 kts | 85° |
| 2026-04-25 00:15 | 44.18715 | 42.53040 | 6944 ft | 295 kts | 85° |
| 2026-04-25 00:15 | 44.18876 | 42.55836 | 6609 ft | 293 kts | 85° |
| 2026-04-25 00:15 | 44.18987 | 42.58656 | 6281 ft | 290 kts | 87° |
| 2026-04-25 00:16 | 44.19033 | 42.61442 | 5927 ft | 286 kts | 89° |
| 2026-04-25 00:16 | 44.19009 | 42.64199 | 5573 ft | 283 kts | 91° |
| 2026-04-25 00:16 | 44.18943 | 42.66917 | 5242 ft | 279 kts | 92° |
| 2026-04-25 00:16 | 44.18868 | 42.69599 | 4906 ft | 275 kts | 92° |
| 2026-04-25 00:17 | 44.18791 | 42.72247 | 4559 ft | 271 kts | 92° |
| 2026-04-25 00:17 | 44.18715 | 42.74820 | 4461 ft | 258 kts | 92° |
| 2026-04-25 00:17 | 44.18644 | 42.77245 | 4447 ft | 242 kts | 92° |
| 2026-04-25 00:17 | 44.18577 | 42.79508 | 4377 ft | 226 kts | 93° |
| 2026-04-25 00:18 | 44.18513 | 42.81630 | 4302 ft | 212 kts | 93° |
| 2026-04-25 00:18 | 44.18454 | 42.83621 | 4265 ft | 198 kts | 93° |
| 2026-04-25 00:18 | 44.18397 | 42.85499 | 4071 ft | 192 kts | 93° |
| 2026-04-25 00:18 | 44.18341 | 42.87346 | 3791 ft | 190 kts | 95° |
| 2026-04-25 00:19 | 44.18284 | 42.89176 | 3494 ft | 189 kts | 94° |
| 2026-04-25 00:19 | 44.18227 | 42.90999 | 3183 ft | 188 kts | 95° |
| 2026-04-25 00:19 | 44.18171 | 42.92807 | 2898 ft | 185 kts | 94° |
| 2026-04-25 00:19 | 44.18119 | 42.94557 | 2758 ft | 175 kts | 95° |
| 2026-04-25 00:20 | 44.18072 | 42.96180 | 2869 ft | 163 kts | 96° |
| 2026-04-25 00:20 | 44.18023 | 42.97757 | 3033 ft | 163 kts | 96° |
| 2026-04-25 00:20 | 44.17971 | 42.99325 | 3191 ft | 158 kts | 97° |
| 2026-04-25 00:20 | 44.17805 | 43.00792 | 3142 ft | 152 kts | 109° |
| 2026-04-25 00:21 | 44.17484 | 43.02229 | 3115 ft | 158 kts | 112° |
| 2026-04-25 00:21 | 44.17086 | 43.03657 | 3036 ft | 158 kts | 116° |
| 2026-04-25 00:21 | 44.16640 | 43.05058 | 2952 ft | 158 kts | 117° |
| 2026-04-25 00:21 | 44.16183 | 43.06455 | 2865 ft | 159 kts | 118° |
| 2026-04-25 00:22 | 44.15723 | 43.07849 | 2813 ft | 158 kts | 117° |
| 2026-04-25 00:22 | 44.15264 | 43.09239 | 2735 ft | 158 kts | 117° |
| 2026-04-25 00:22 | 44.14803 | 43.10623 | 2641 ft | 157 kts | 118° |
| 2026-04-25 00:22 | 44.14396 | 43.12039 | 2552 ft | 160 kts | 103° |
| 2026-04-25 00:23 | 44.14644 | 43.13542 | 2487 ft | 167 kts | 57° |
| 2026-04-25 00:23 | 44.15509 | 43.14606 | 2493 ft | 170 kts | 37° |
| 2026-04-25 00:23 | 44.16518 | 43.15481 | 2406 ft | 164 kts | 33° |
| 2026-04-25 00:23 | 44.17469 | 43.16218 | 2197 ft | 154 kts | 24° |
| 2026-04-25 00:24 | 44.18474 | 43.16168 | 1975 ft | 143 kts | 329° |
| 2026-04-25 00:24 | 44.19223 | 43.15345 | 1762 ft | 133 kts | 317° |
| 2026-04-25 00:24 | 44.19859 | 43.14448 | 1583 ft | 129 kts | 301° |
| 2026-04-25 00:24 | 44.20358 | 43.13413 | 1450 ft | 129 kts | 302° |
| 2026-04-25 00:25 | 44.20835 | 43.12351 | 1363 ft | 129 kts | 302° |
| 2026-04-25 00:25 | 44.21315 | 43.11297 | 1213 ft | 128 kts | 303° |
| 2026-04-25 00:25 | 44.21793 | 43.10249 | 1080 ft | 127 kts | 303° |
| 2026-04-25 00:25 | 44.22212 | 43.09331 | 1058 ft | 86 kts | 302° |
| 2026-04-25 00:26 | 44.22317 | 43.08996 | 1056 ft | 28 kts | 300° |
| 2026-04-25 00:26 | 44.22434 | 43.08804 | 1057 ft | 27 kts | 307° |
| 2026-04-25 00:26 | 44.22591 | 43.08517 | 1057 ft | 41 kts | 314° |
| 2026-04-25 00:26 | 44.22736 | 43.08190 | 1054 ft | 40 kts | 300° |
| 2026-04-25 00:27 | 44.22879 | 43.07862 | 1054 ft | 39 kts | 303° |
| 2026-04-25 00:27 | 44.23001 | 43.07536 | 1056 ft | 37 kts | 286° |
| 2026-04-25 00:27 | 44.23021 | 43.07268 | 1055 ft | 23 kts | 272° |
| 2026-04-25 00:27 | 44.23018 | 43.07095 | 1055 ft | 13 kts | 250° |
| 2026-04-25 00:28 | 44.22947 | 43.07068 | 1054 ft | 14 kts | 168° |
| 2026-04-25 00:28 | 44.22832 | 43.07103 | 1054 ft | 18 kts | 167° |
| 2026-04-25 00:28 | 44.22701 | 43.07146 | 1054 ft | 20 kts | 165° |
| 2026-04-25 00:28 | 44.22612 | 43.07276 | 1054 ft | 19 kts | 122° |
| 2026-04-25 00:29 | 44.22539 | 43.07439 | 1054 ft | 19 kts | 117° |
| 2026-04-25 00:29 | 44.22456 | 43.07617 | 1054 ft | 25 kts | 123° |
| 2026-04-25 00:29 | 44.22362 | 43.07824 | 1054 ft | 26 kts | 122° |
| 2026-04-25 00:29 | 44.22264 | 43.08044 | 1054 ft | 27 kts | 122° |
| 2026-04-25 00:30 | 44.22162 | 43.08273 | 1054 ft | 28 kts | 122° |
| 2026-04-25 00:30 | 44.22062 | 43.08495 | 1055 ft | 27 kts | 121° |
| 2026-04-25 00:30 | 44.22015 | 43.08624 | 1055 ft | 11 kts | 106° |
| 2026-04-25 00:30 | 44.21993 | 43.08691 | 1055 ft | 5 kts | 137° |
| 2026-04-25 00:31 | 44.21958 | 43.08691 | 1055 ft | 5 kts | 205° |
| 2026-04-25 00:31 | 44.21931 | 43.08666 | 1055 ft | 0 kts | 212° |
| 2026-04-25 00:31 | 44.21921 | 43.08658 | 1055 ft | 2 kts | 212° |
| 2026-04-25 00:31 | 44.21910 | 43.08648 | 1054 ft | 0 kts | 212° |